• Join FlightAware (Why Join?)
  • Login
  • US Flag 
12:55AM EDT


 

Airport Tracker/Info


-or-


 

Live Flight TrackerFlight Track Log ✈ SKW5511 ✈ 04-Apr-2013 ✈ KORD - KCOS

Flight Track Log - Related Links

Times and Time Zones

All times are in EDT time to prevent confusion due to time zone crossing. See the SKW5511 flight status page for this flight to view local times or setup timezone preferences in your user account.

Time Position Orientation Groundspeed Altitude Reporting Facility
EDT Latitude Longitude Course Direction KTS MPH feet Rate Location/Type
09:18PM 42.0000 -87.9833 261° West 174 200 3,100  Level Chicago TRACON
09:19PM 41.9833 -88.0667 255° West 232 267 5,000 1,860 Climbing Chicago TRACON
09:20PM 41.9528 -88.1483 243° Southwest 252 290 7,100 2,460 Climbing Chicago Center
09:21PM 41.9141 -88.4885 261° West  Level FlightAware Approximate
09:21PM 41.9347 -88.2425 256° West 262 302 10,100  Level Chicago Center
09:22PM 41.8967 -88.6369 261° West  Level FlightAware Approximate
09:22PM 41.9158 -88.3656 258° West 283 326 12,600  Level Chicago Center
09:23PM 41.8793 -88.7852 261° West  Level FlightAware Approximate
09:24PM 41.8627 -88.9310 261° West  Level FlightAware Approximate
09:24PM 41.9000 -88.4825 260° West 310 357 15,000  Level Chicago Center
09:25PM 41.8833 -88.6050 260° West 328 377 17,200 2,040 Climbing Chicago Center
09:26PM 41.8675 -88.7314 260° West 340 391 19,300 1,860 Climbing Chicago Center
09:27PM 41.8511 -88.8578 260° West 346 398 21,100 1,800 Climbing Chicago Center
09:28PM 41.8286 -89.0175 259° West 363 418 23,000 1,560 Climbing Chicago Center
09:29PM 41.8097 -89.1561 260° West 379 436 24,400 1,260 Climbing Chicago Center
09:30PM 41.7919 -89.2958 260° West 381 438 25,700 1,260 Climbing Chicago Center
09:31PM 41.7736 -89.4411 260° West 392 451 27,000 1,260 Climbing Chicago Center
09:32PM 41.7581 -89.5953 262° West 401 461 28,400 1,320 Climbing Chicago Center
09:33PM 41.7425 -89.7456 262° West 408 470 29,800 1,380 Climbing Chicago Center
09:34PM 41.7258 -89.8906 261° West 398 458 31,300 1,260 Climbing Chicago Center
09:35PM 41.7103 -90.0364 262° West 397 457 32,500 1,200 Climbing Chicago Center
09:36PM 41.6903 -90.2106 261° West 396 456 33,900 720 Climbing Chicago Center
09:37PM 41.6719 -90.3631 261° West 416 479 34,000  Climbing Chicago Center
09:38PM 41.6536 -90.5197 261° West 426 490 34,000  Level Chicago Center
09:39PM 41.6353 -90.6739 261° West 439 505 34,000  Level Chicago Center
09:40PM 41.6156 -90.8361 261° West 443 510 34,000  Level Chicago Center
09:41PM 41.5914 -91.0319 261° West 447 514 34,000  Level Chicago Center
09:42PM 41.5725 -91.1939 261° West 446 513 34,000  Level Chicago Center
09:43PM 41.5517 -91.3567 260° West 446 513 34,000  Level Chicago Center
09:44PM 41.5308 -91.5181 260° West 445 512 34,000  Level Chicago Center
09:45PM 41.5025 -91.6769 257° West 442 509 34,000  Level Chicago Center
09:46PM 41.4606 -91.8358 251° West 453 521 34,000  Level Chicago Center
09:47PM 41.4189 -91.9914 250° West 449 517 34,000  Level Chicago Center
09:48PM 41.3689 -92.1806 251° West 452 520 34,000  Level Chicago Center
09:49PM 41.3269 -92.3369 250° West 451 519 34,000  Level Chicago Center
09:50PM 41.2836 -92.4967 250° West 455 524 34,000  Level Chicago Center
09:51PM 41.2411 -92.6531 250° West 455 524 34,000  Level Chicago Center
09:52PM 41.1969 -92.8078 249° West 454 522 34,000  Level Chicago Center
09:53PM 41.1464 -92.9947 250° West 453 521 34,000  Level Minneapolis Center
09:54PM 41.1036 -93.1494 250° West 453 521 34,000  Level Minneapolis Center
09:55PM 41.0603 -93.3022 249° West 450 518 34,000  Level Minneapolis Center
09:56PM 41.0178 -93.4589 250° West 455 524 34,000  Level Minneapolis Center
09:57PM 40.9731 -93.6133 249° West 456 525 34,000  Level Minneapolis Center
09:58PM 40.9281 -93.7694 249° West 457 526 34,000  Level Minneapolis Center
09:59PM 40.8739 -93.9572 249° West 459 528 34,000  Level Minneapolis Center
10:01PM 40.8283 -94.1125 249° West 458 527 34,000  Level Minneapolis Center
10:02PM 40.7850 -94.2669 250° West 455 524 34,000  Level Minneapolis Center
10:03PM 40.7369 -94.4228 248° West 459 528 34,000  Level Minneapolis Center
10:04PM 40.7128 -94.5814 259° West 452 520 34,000  Level Minneapolis Center
10:05PM 40.6875 -94.7425 258° West 447 514 34,000  Level Minneapolis Center
10:06PM 40.6683 -94.8708 259° West 446 513 34,000  Level Minneapolis Center
10:07PM 40.6303 -95.1042 258° West 458 527 34,000  Level Minneapolis Center
10:08PM 40.6036 -95.2717 258° West 466 536 34,000  Level Minneapolis Center
10:09PM 40.5764 -95.4389 258° West 466 536 34,000  Level Minneapolis Center
10:10PM 40.5503 -95.6075 259° West 467 537 34,000  Level Minneapolis Center
10:11PM 40.5236 -95.7767 258° West 470 541 34,000  Level Minneapolis Center
10:12PM 40.4964 -95.9433 258° West 466 536 34,000  Level Minneapolis Center
10:13PM 40.4694 -96.1089 258° West 464 534 34,000  Level Minneapolis Center
10:14PM 40.4408 -96.2769 257° West 467 537 34,000  Level Minneapolis Center
10:15PM 40.4117 -96.4436 257° West 468 539 34,000  Level Minneapolis Center
10:16PM 40.3836 -96.6081 257° West 463 533 34,000  Level Minneapolis Center
10:17PM 40.3556 -96.7753 258° West 467 537 34,000  Level Minneapolis Center
10:18PM 40.3272 -96.9397 257° West 464 534 34,000  Level Minneapolis Center
10:19PM 40.2919 -97.1372 257° West 463 533 34,000  Level Minneapolis Center
10:20PM 40.2619 -97.3025 257° West 465 535 34,000  Level Minneapolis Center
10:21PM 40.2336 -97.4661 257° West 466 536 34,000  Level Minneapolis Center
10:22PM 40.2039 -97.6311 257° West 466 536 34,000  Level Minneapolis Center
10:23PM 40.1739 -97.7947 257° West 464 534 34,000  Level Minneapolis Center
10:24PM 40.1439 -97.9589 257° West 463 533 34,000  Level Minneapolis Center
10:25PM 40.1136 -98.1239 257° West 464 534 34,000  Level Minneapolis Center
10:26PM 40.0831 -98.2861 256° West 462 532 34,000  Level Minneapolis Center
10:27PM 40.0525 -98.4506 256° West 463 533 34,000  Level Minneapolis Center
10:28PM 40.0208 -98.6150 256° West 464 534 34,000  Level Minneapolis Center
10:29PM 39.9886 -98.7803 256° West 467 537 34,000  Level Minneapolis Center
10:30PM 39.9572 -98.9450 256° West 466 536 34,000  Level Denver Center
10:31PM 39.9256 -99.1086 256° West 465 535 34,000  Level Denver Center
10:32PM 39.8931 -99.2719 256° West 464 534 34,000  Level Denver Center
10:33PM 39.8536 -99.4664 255° West 462 532 34,000  Level Denver Center
10:34PM 39.8219 -99.6297 256° West 464 534 34,000  Level Denver Center
10:35PM 39.7897 -99.7908 255° West 461 531 34,000  Level Denver Center
10:37PM 39.7444 -100.0114 255° West 463 533 34,000  Level Denver Center
10:38PM 39.7133 -100.1644 255° West 458 527 34,000  Level Denver Center
10:39PM 39.6764 -100.3458 255° West 463 533 34,000  Level Denver Center
10:40PM 39.6428 -100.5006 254° West 464 534 34,000  Level Denver Center
10:41PM 39.6108 -100.6553 255° West 465 535 34,000  Level Denver Center
10:42PM 39.5728 -100.8372 255° West 467 537 34,000  Level Denver Center
10:43PM 39.5392 -100.9917 254° West 465 535 34,000  Level Denver Center
10:44PM 39.5003 -101.1756 255° West 469 540 34,000  Level Denver Center
10:45PM 39.4725 -101.3022 254° West 462 532 34,000  Level Denver Center
10:46PM 39.4278 -101.5094 254° West 465 535 34,000  Level Denver Center
10:47PM 39.3936 -101.6636 254° West 465 535 34,000  Level Denver Center
10:48PM 39.3525 -101.8133 250° West 463 533 34,000 -540 Level Denver Center
10:49PM 39.3069 -101.9731 250° West 462 532 32,900 -2,100 Descending Denver Center
10:50PM 39.2564 -102.1439 249° West 458 527 29,700 -2,400 Descending Denver Center
10:51PM 39.2142 -102.2917 250° West 461 531 28,000 -1,080 Descending Denver Center
10:52PM 39.1647 -102.4581 249° West 449 517 27,500 -540 Descending Denver Center
10:53PM 39.1244 -102.5969 250° West 437 503 27,000 -240 Descending Denver Center
10:54PM 39.0781 -102.7525 249° West 449 517 27,100 -1,020 Climbing Denver Center
10:55PM 39.0325 -102.9008 248° West 443 510 25,000 -1,980 Descending Denver Center
10:56PM 38.9864 -103.0497 248° West 443 510 23,100 -1,380 Descending Denver Center
10:57PM 38.9431 -103.1992 250° West 442 509 22,200 -1,320 Descending Denver Center
10:58PM 38.8989 -103.3453 249° West 436 502 20,400 -1,980 Descending Denver Center
10:59PM 38.8506 -103.5072 249° West 413 475 18,200 -1,680 Descending Denver Center
11:00PM 38.8208 -103.6411 254° West 396 456 17,000 -1,200 Descending Denver Center
11:01PM 38.8358 -103.7669 279° West 376 433 15,800 -1,260 Descending Denver Center
11:02PM 38.8533 -103.9064 279° West 370 426 14,500 -960 Descending Denver Center
11:03PM 38.8697 -104.0369 279° West 369 425 13,900 -900 Descending Denver Center
11:04PM 38.8825 -104.1372 279° West 367 422 12,700 -1,440 Descending Denver Center
11:05PM 38.9058 -104.3006 280° West 366 421 11,000 -900 Descending Denver Center
11:06PM 38.9242 -104.4250 281° West 370 426 10,900 -180 Descending Denver Center
11:07PM 38.9253 -104.5400 271° West 315 362 10,700 -900 Descending Denver Center
11:08PM 38.9283 -104.6267 273° West 250 288 9,100 -1,620 Descending Denver Center